createdAt,value
2018-05-11T00:00:44.662Z,9.17
2018-05-11T00:03:12.152Z,8.93
2018-05-11T00:05:39.618Z,8.97
2018-05-11T00:08:07.082Z,9.67
2018-05-11T00:10:34.591Z,10.13
2018-05-11T00:13:02.054Z,9.60
2018-05-11T00:15:29.541Z,9.83
2018-05-11T00:17:57.006Z,9.50
2018-05-11T00:20:24.498Z,9.43
2018-05-11T00:22:51.962Z,9.00
2018-05-11T00:25:19.442Z,9.40
2018-05-11T00:27:46.905Z,9.60
2018-05-11T00:30:14.389Z,10.13
2018-05-11T00:32:41.859Z,10.07
2018-05-11T00:35:09.336Z,9.83
2018-05-11T00:37:36.797Z,10.73
2018-05-11T00:40:04.286Z,10.83
2018-05-11T00:42:31.757Z,9.93
2018-05-11T00:44:59.269Z,10.83
2018-05-11T00:47:26.744Z,10.53
2018-05-11T00:49:54.319Z,9.93
2018-05-11T00:52:21.809Z,10.40
2018-05-11T00:54:49.298Z,10.50
2018-05-11T00:57:16.769Z,11.13
2018-05-11T00:59:44.262Z,10.30
2018-05-11T01:02:11.727Z,10.87
2018-05-11T01:04:39.209Z,10.90
2018-05-11T01:07:06.682Z,10.83
2018-05-11T01:09:34.180Z,10.60
2018-05-11T01:12:01.698Z,11.23
2018-05-11T01:14:29.536Z,10.70
2018-05-11T01:16:57.059Z,10.77
2018-05-11T01:19:24.539Z,10.40
2018-05-11T01:21:52.015Z,10.03
2018-05-11T01:24:19.506Z,10.10
2018-05-11T01:26:46.969Z,10.13
2018-05-11T01:29:14.429Z,10.57
2018-05-11T01:31:41.922Z,9.63
2018-05-11T01:34:09.394Z,10.13
2018-05-11T01:36:36.878Z,9.90
2018-05-11T01:39:04.354Z,10.33
2018-05-11T01:41:31.853Z,10.57
2018-05-11T01:44:00.123Z,10.73
2018-05-11T01:46:27.623Z,11.47
2018-05-11T01:48:55.115Z,11.10
2018-05-11T01:51:22.597Z,11.37
2018-05-11T01:53:50.069Z,11.37
2018-05-11T01:56:17.567Z,10.90
2018-05-11T01:58:45.083Z,11.20
2018-05-11T02:01:12.582Z,11.47
2018-05-11T02:03:40.060Z,12.00
2018-05-11T02:06:07.566Z,11.50
2018-05-11T02:08:35.038Z,12.80
2018-05-11T02:11:02.529Z,11.70
2018-05-11T02:13:30.007Z,12.77
2018-05-11T02:15:57.497Z,11.80
2018-05-11T02:18:24.969Z,11.37
2018-05-11T02:20:52.468Z,12.07
2018-05-11T02:23:19.961Z,12.63
2018-05-11T02:25:47.521Z,13.03
2018-05-11T02:28:14.934Z,12.67
2018-05-11T02:30:42.427Z,12.63
2018-05-11T02:33:09.903Z,13.30
2018-05-11T02:35:37.398Z,12.97
2018-05-11T02:38:04.875Z,14.03
2018-05-11T02:40:32.373Z,13.07
2018-05-11T02:42:59.833Z,13.57
2018-05-11T02:45:27.325Z,13.17
2018-05-11T02:47:54.803Z,13.17
2018-05-11T02:50:22.298Z,12.93
2018-05-11T02:52:49.781Z,13.50
2018-05-11T02:55:17.250Z,14.13
2018-05-11T02:57:44.737Z,14.07
2018-05-11T03:00:12.202Z,13.50
2018-05-11T03:02:39.681Z,14.67
2018-05-11T03:05:07.142Z,14.77
2018-05-11T03:07:34.634Z,14.43
2018-05-11T03:10:02.168Z,14.40
2018-05-11T03:12:29.658Z,14.53
2018-05-11T03:14:57.127Z,14.07
2018-05-11T03:17:24.618Z,14.20
2018-05-11T03:19:52.082Z,14.67
2018-05-11T03:22:19.569Z,16.85
2018-05-11T03:24:47.032Z,13.57
2018-05-11T03:27:14.522Z,13.53
2018-05-11T03:29:41.997Z,14.13
2018-05-11T03:32:09.482Z,14.57
2018-05-11T03:34:36.950Z,15.07
2018-05-11T03:37:04.454Z,16.27
2018-05-11T03:39:31.927Z,16.00
2018-05-11T03:41:59.409Z,16.67
2018-05-11T03:44:26.881Z,16.03
2018-05-11T03:46:54.376Z,17.37
2018-05-11T03:49:21.838Z,17.10
2018-05-11T03:51:49.327Z,15.70
2018-05-11T03:54:16.801Z,15.67
2018-05-11T03:56:44.281Z,16.73
2018-05-11T03:59:11.817Z,17.27
2018-05-11T04:01:51.250Z,16.93
2018-05-11T04:04:30.375Z,16.23
2018-05-11T04:07:09.684Z,15.87
2018-05-11T04:09:37.153Z,16.17
2018-05-11T04:12:04.649Z,16.60
2018-05-11T04:14:32.969Z,16.73
2018-05-11T04:17:00.457Z,17.00
2018-05-11T04:19:27.926Z,16.33
2018-05-11T04:21:55.411Z,15.80
2018-05-11T04:24:22.890Z,16.10
2018-05-11T04:26:50.588Z,15.27
2018-05-11T04:29:18.076Z,15.40
2018-05-11T04:31:45.542Z,15.57
2018-05-11T04:34:13.097Z,14.77
2018-05-11T04:36:40.584Z,14.47
2018-05-11T04:39:08.070Z,14.97
2018-05-11T04:41:35.537Z,14.67
2018-05-11T04:44:03.030Z,15.20
2018-05-11T04:46:30.509Z,15.67
2018-05-11T04:48:58.010Z,15.03
2018-05-11T04:51:25.477Z,17.60
2018-05-11T04:53:52.963Z,15.93
2018-05-11T04:56:20.454Z,14.83
2018-05-11T04:58:47.953Z,14.60
2018-05-11T05:01:16.548Z,14.10
2018-05-11T05:03:44.041Z,14.70
2018-05-11T05:06:11.502Z,14.63
2018-05-11T05:08:38.993Z,14.30
2018-05-11T05:11:06.465Z,14.03
2018-05-11T05:13:33.954Z,14.10
2018-05-11T05:16:01.426Z,13.93
2018-05-11T05:18:28.917Z,14.73
2018-05-11T05:20:56.389Z,14.10
2018-05-11T05:23:23.882Z,13.97
2018-05-11T05:25:51.363Z,13.87
2018-05-11T05:28:18.862Z,12.80
2018-05-11T05:30:46.399Z,14.13
2018-05-11T05:33:13.996Z,13.27
2018-05-11T05:35:41.396Z,13.37
2018-05-11T05:38:08.893Z,13.90
2018-05-11T05:40:36.377Z,13.20
2018-05-11T05:43:03.846Z,12.90
2018-05-11T05:45:31.342Z,13.33
2018-05-11T05:47:58.809Z,13.10
2018-05-11T05:50:26.297Z,12.40
2018-05-11T05:52:53.809Z,12.50
2018-05-11T05:55:21.310Z,12.57
2018-05-11T05:57:48.798Z,11.83
2018-05-11T06:00:16.316Z,11.97
2018-05-11T06:02:43.791Z,12.43
2018-05-11T06:05:11.299Z,12.60
2018-05-11T06:07:38.775Z,12.33
2018-05-11T06:10:06.271Z,12.70
2018-05-11T06:12:33.750Z,12.20
2018-05-11T06:15:01.239Z,13.50
2018-05-11T06:17:29.606Z,13.03
2018-05-11T06:19:57.093Z,13.57
2018-05-11T06:22:24.561Z,13.17
2018-05-11T06:24:52.232Z,12.57
2018-05-11T06:27:19.543Z,13.90
2018-05-11T06:29:47.038Z,12.93
2018-05-11T06:32:14.513Z,13.47
2018-05-11T06:34:42.015Z,13.20
2018-05-11T06:37:09.495Z,13.07
2018-05-11T06:39:36.982Z,14.07
2018-05-11T06:42:04.461Z,14.10
2018-05-11T06:44:31.954Z,14.10
2018-05-11T06:46:59.417Z,15.33
2018-05-11T06:49:26.910Z,14.57
2018-05-11T06:51:54.386Z,15.50
2018-05-11T06:54:21.893Z,15.67
2018-05-11T06:56:49.362Z,16.37
2018-05-11T06:59:16.830Z,16.67
2018-05-11T07:01:44.316Z,16.20
2018-05-11T07:04:11.785Z,16.73
2018-05-11T07:06:39.270Z,17.17
2018-05-11T07:09:06.742Z,16.73
2018-05-11T07:11:34.233Z,16.53
2018-05-11T07:14:01.714Z,16.43
2018-05-11T07:16:29.209Z,17.37
2018-05-11T07:18:56.687Z,17.47
2018-05-11T07:21:24.182Z,19.10
2018-05-11T07:23:51.656Z,19.17
2018-05-11T07:26:19.137Z,19.43
2018-05-11T07:28:46.605Z,18.43
2018-05-11T07:31:14.094Z,17.77
2018-05-11T07:33:41.585Z,18.50
2018-05-11T07:36:09.077Z,18.03
2018-05-11T07:38:36.552Z,17.10
2018-05-11T07:41:04.042Z,17.30
2018-05-11T07:43:31.606Z,17.63
2018-05-11T07:45:59.013Z,18.53
2018-05-11T07:48:26.482Z,18.40
2018-05-11T07:50:53.977Z,18.13
2018-05-11T07:53:21.450Z,18.53
2018-05-11T07:55:48.937Z,17.97
2018-05-11T07:58:16.475Z,18.43
2018-05-11T08:00:43.970Z,18.00
2018-05-11T08:03:11.447Z,18.67
2018-05-11T08:05:38.929Z,18.53
2018-05-11T08:08:06.410Z,18.83
2018-05-11T08:10:33.897Z,18.67
2018-05-11T08:13:01.362Z,17.90
2018-05-11T08:15:28.869Z,17.63
2018-05-11T08:17:56.334Z,17.30
2018-05-11T08:20:23.805Z,17.27
2018-05-11T08:22:51.290Z,17.63
2018-05-11T08:25:18.770Z,17.83
2018-05-11T08:27:46.261Z,16.97
2018-05-11T08:30:13.734Z,16.37
2018-05-11T08:32:41.222Z,17.07
2018-05-11T08:35:08.694Z,15.77
2018-05-11T08:37:36.185Z,17.50
2018-05-11T08:40:03.667Z,17.37
2018-05-11T08:42:31.162Z,16.03
2018-05-11T08:44:58.628Z,16.67
2018-05-11T08:47:26.117Z,15.63
2018-05-11T08:49:53.581Z,16.13
2018-05-11T08:52:21.069Z,16.50
2018-05-11T08:54:48.541Z,16.07
2018-05-11T08:57:16.117Z,15.67
2018-05-11T08:59:43.518Z,15.47
2018-05-11T09:02:11.012Z,16.10
2018-05-11T09:04:38.490Z,15.70
2018-05-11T09:07:05.982Z,14.90
2018-05-11T09:09:33.462Z,15.57
2018-05-11T09:12:00.946Z,16.13
2018-05-11T09:14:28.427Z,15.27
2018-05-11T09:16:55.918Z,15.10
2018-05-11T09:19:23.393Z,15.07
2018-05-11T09:21:50.884Z,14.10
2018-05-11T09:24:18.354Z,12.77
2018-05-11T09:26:45.838Z,12.53
2018-05-11T09:29:13.306Z,12.37
2018-05-11T09:31:40.861Z,12.37
2018-05-11T09:34:08.290Z,12.90
2018-05-11T09:36:35.782Z,13.87
2018-05-11T09:39:03.253Z,13.33
2018-05-11T09:41:30.721Z,13.90
2018-05-11T09:43:58.214Z,14.23
2018-05-11T09:46:25.729Z,13.50
2018-05-11T09:48:53.217Z,13.10
2018-05-11T09:51:20.681Z,13.20
2018-05-11T09:53:48.165Z,13.33
2018-05-11T09:56:15.630Z,13.10
2018-05-11T09:58:43.131Z,12.80
2018-05-11T10:01:10.604Z,12.33
2018-05-11T10:03:38.098Z,13.77
2018-05-11T10:06:05.562Z,12.80
2018-05-11T10:08:33.047Z,12.77
2018-05-11T10:11:00.518Z,13.77
2018-05-11T10:13:28.007Z,14.80
2018-05-11T10:15:55.475Z,15.33
2018-05-11T10:18:22.967Z,14.80
2018-05-11T10:20:50.450Z,12.30
2018-05-11T10:23:17.941Z,13.93
2018-05-11T10:25:45.405Z,14.10
2018-05-11T10:28:12.894Z,11.47
2018-05-11T10:30:40.358Z,13.10
2018-05-11T10:33:07.838Z,13.10
2018-05-11T10:35:35.318Z,12.67
2018-05-11T10:38:02.812Z,14.00
2018-05-11T10:40:30.284Z,14.23
2018-05-11T10:42:57.773Z,13.27
2018-05-11T10:45:25.247Z,10.17
2018-05-11T10:47:52.744Z,10.27
2018-05-11T10:50:20.208Z,9.77
2018-05-11T10:52:47.694Z,11.43
2018-05-11T10:55:15.166Z,11.27
2018-05-11T10:57:42.655Z,10.00
2018-05-11T11:00:10.140Z,10.63
2018-05-11T11:02:37.625Z,10.27
2018-05-11T11:05:05.102Z,8.63
2018-05-11T11:07:32.572Z,9.20
2018-05-11T11:10:00.063Z,9.20
2018-05-11T11:12:27.530Z,9.90
2018-05-11T11:14:55.015Z,9.50
2018-05-11T11:17:22.498Z,8.70
2018-05-11T11:19:49.985Z,9.40
2018-05-11T11:22:17.450Z,10.13
2018-05-11T11:24:44.944Z,9.60
2018-05-11T11:27:12.418Z,9.47
2018-05-11T11:29:39.909Z,8.27
2018-05-11T11:32:07.387Z,8.97
2018-05-11T11:34:34.876Z,8.83
2018-05-11T11:37:02.350Z,7.00
2018-05-11T11:39:29.832Z,6.40
2018-05-11T11:41:57.299Z,7.30
2018-05-11T11:44:24.812Z,8.50
2018-05-11T11:46:52.278Z,8.33
2018-05-11T11:49:19.757Z,7.80
2018-05-11T11:51:47.217Z,7.60
2018-05-11T11:54:14.709Z,8.00
2018-05-11T11:56:42.171Z,7.20
2018-05-11T11:59:09.648Z,6.40
2018-05-11T12:01:37.117Z,5.60
2018-05-11T12:04:04.606Z,4.70
2018-05-11T12:06:32.065Z,4.77
2018-05-11T12:08:59.560Z,5.70
2018-05-11T12:11:27.028Z,4.80
2018-05-11T12:13:54.585Z,4.13
2018-05-11T12:16:22.007Z,3.73
2018-05-11T12:18:49.506Z,3.77
2018-05-11T12:21:16.970Z,3.63
2018-05-11T12:23:44.432Z,4.00
2018-05-11T12:26:11.910Z,4.13
2018-05-11T12:28:39.365Z,4.10
2018-05-11T12:31:06.844Z,3.63
2018-05-11T12:33:34.306Z,3.50
2018-05-11T12:36:01.802Z,3.70
2018-05-11T12:38:29.265Z,3.23
2018-05-11T12:40:56.746Z,4.13
2018-05-11T12:43:24.213Z,3.70
2018-05-11T12:45:51.701Z,3.80
2018-05-11T12:48:19.162Z,3.37
2018-05-11T12:50:46.646Z,3.17
2018-05-11T12:53:14.109Z,3.60
2018-05-11T12:55:41.935Z,3.70
2018-05-11T12:58:09.398Z,3.37
2018-05-11T13:00:36.881Z,3.20
2018-05-11T13:03:04.343Z,3.27
2018-05-11T13:05:32.260Z,3.13
2018-05-11T13:07:59.719Z,3.07
2018-05-11T13:10:27.389Z,3.00
2018-05-11T13:12:54.899Z,3.30
2018-05-11T13:15:22.359Z,3.27
2018-05-11T13:17:49.830Z,3.00
2018-05-11T13:20:17.314Z,3.08
2018-05-11T13:22:44.787Z,2.87
2018-05-11T13:25:12.373Z,3.40
2018-05-11T13:27:39.845Z,2.90
2018-05-11T13:30:07.326Z,2.87
2018-05-11T13:32:34.798Z,2.85
2018-05-11T13:35:02.289Z,2.80
2018-05-11T13:37:29.754Z,2.67
2018-05-11T13:39:57.265Z,3.50
2018-05-11T13:42:24.729Z,3.00
2018-05-11T13:44:52.186Z,3.00
2018-05-11T13:47:19.670Z,2.80
2018-05-11T13:49:47.137Z,2.80
2018-05-11T13:52:14.625Z,3.00
2018-05-11T13:54:42.082Z,3.20
2018-05-11T13:57:09.601Z,3.13
2018-05-11T13:59:37.088Z,2.70
2018-05-11T14:02:04.590Z,2.85
2018-05-11T14:04:32.052Z,2.67
2018-05-11T14:06:59.538Z,2.78
2018-05-11T14:09:27.006Z,2.60
2018-05-11T14:11:54.540Z,3.20
2018-05-11T14:14:22.006Z,2.60
2018-05-11T14:16:49.490Z,2.87
2018-05-11T14:19:16.953Z,2.75
2018-05-11T14:21:44.433Z,2.90
2018-05-11T14:24:11.903Z,2.67
2018-05-11T14:26:39.390Z,2.97
2018-05-11T14:29:06.864Z,2.85
2018-05-11T14:31:34.365Z,2.72
2018-05-11T14:34:01.839Z,2.85
2018-05-11T14:36:29.327Z,2.50
2018-05-11T14:38:56.798Z,2.90
2018-05-11T14:41:24.285Z,2.62
2018-05-11T14:43:51.750Z,2.80
2018-05-11T14:46:19.233Z,2.50
2018-05-11T14:48:46.693Z,2.75
2018-05-11T14:51:14.183Z,2.78
2018-05-11T14:53:41.981Z,2.62
2018-05-11T14:56:09.465Z,2.75
2018-05-11T14:58:37.096Z,2.80
2018-05-11T15:01:04.529Z,2.45
2018-05-11T15:03:32.005Z,2.72
2018-05-11T15:05:59.497Z,2.60
2018-05-11T15:08:26.987Z,2.60
2018-05-11T15:10:54.445Z,3.00
2018-05-11T15:13:21.930Z,2.80
2018-05-11T15:15:49.393Z,3.00
2018-05-11T15:18:16.873Z,2.45
2018-05-11T15:20:44.329Z,2.50
2018-05-11T15:23:11.814Z,3.00
2018-05-11T15:25:39.277Z,2.45
2018-05-11T15:28:07.528Z,2.42
2018-05-11T15:30:34.993Z,2.35
2018-05-11T15:33:02.495Z,2.78
2018-05-11T15:35:29.999Z,2.70
2018-05-11T15:37:57.478Z,2.87
2018-05-11T15:40:25.002Z,2.67
2018-05-11T15:42:52.455Z,2.80
2018-05-11T15:45:19.919Z,2.53
2018-05-11T15:47:47.397Z,2.45
2018-05-11T15:50:14.870Z,2.47
2018-05-11T15:52:42.358Z,2.62
2018-05-11T15:55:09.821Z,2.50
2018-05-11T15:57:37.303Z,3.17
2018-05-11T16:00:04.764Z,3.15
2018-05-11T16:02:32.251Z,2.62
2018-05-11T16:04:59.721Z,2.60
2018-05-11T16:07:27.206Z,2.60
2018-05-11T16:09:54.676Z,2.80
2018-05-11T16:12:22.153Z,2.90
2018-05-11T16:14:49.610Z,2.50
2018-05-11T16:17:17.094Z,2.70
2018-05-11T16:19:44.553Z,2.67
2018-05-11T16:22:12.137Z,2.70
2018-05-11T16:24:39.626Z,2.97
2018-05-11T16:27:07.096Z,2.60
2018-05-11T16:29:34.583Z,2.70
2018-05-11T16:32:02.052Z,2.53
2018-05-11T16:34:29.534Z,2.50
2018-05-11T16:36:57.010Z,2.65
2018-05-11T16:39:24.493Z,2.95
2018-05-11T16:41:51.969Z,2.95
2018-05-11T16:44:19.453Z,3.08
2018-05-11T16:46:46.913Z,2.70
2018-05-11T16:49:14.405Z,3.17
2018-05-11T16:51:41.861Z,2.90
2018-05-11T16:54:09.349Z,2.97
2018-05-11T16:56:36.815Z,3.15
2018-05-11T16:59:04.306Z,2.63
2018-05-11T17:01:31.766Z,2.70
2018-05-11T17:03:59.254Z,2.77
2018-05-11T17:06:26.713Z,2.70
2018-05-11T17:08:54.193Z,2.90
2018-05-11T17:11:21.667Z,2.63
2018-05-11T17:13:49.146Z,2.80
2018-05-11T17:16:16.611Z,2.60
2018-05-11T17:18:44.102Z,2.43
2018-05-11T17:21:11.559Z,2.57
2018-05-11T17:23:39.034Z,3.30
2018-05-11T17:26:06.496Z,2.93
2018-05-11T17:28:33.984Z,2.80
2018-05-11T17:31:01.459Z,3.20
2018-05-11T17:33:28.940Z,2.90
2018-05-11T17:35:56.403Z,2.73
2018-05-11T17:38:23.906Z,3.03
2018-05-11T17:40:51.402Z,2.97
2018-05-11T17:43:19.402Z,3.17
2018-05-11T17:45:46.890Z,3.00
2018-05-11T17:48:14.423Z,2.93
2018-05-11T17:50:41.913Z,2.97
2018-05-11T17:53:09.371Z,3.20
2018-05-11T17:55:36.862Z,3.00
2018-05-11T17:58:04.322Z,3.13
2018-05-11T18:00:31.806Z,3.00
2018-05-11T18:02:59.271Z,3.00
2018-05-11T18:05:26.763Z,3.27
2018-05-11T18:07:54.220Z,3.10
2018-05-11T18:10:21.818Z,3.03
2018-05-11T18:12:49.468Z,3.10
2018-05-11T18:15:16.956Z,2.70
2018-05-11T18:17:44.425Z,3.20
2018-05-11T18:20:11.908Z,3.40
2018-05-11T18:22:39.383Z,3.20
2018-05-11T18:25:06.877Z,2.53
2018-05-11T18:27:34.341Z,2.90
2018-05-11T18:30:01.872Z,3.23
2018-05-11T18:32:29.313Z,2.90
2018-05-11T18:34:56.795Z,3.30
2018-05-11T18:37:24.261Z,3.30
2018-05-11T18:39:51.737Z,2.97
2018-05-11T18:42:19.203Z,3.27
2018-05-11T18:44:46.685Z,2.53
2018-05-11T18:47:14.141Z,2.77
2018-05-11T18:49:41.639Z,3.30
2018-05-11T18:52:09.106Z,2.70
2018-05-11T18:54:36.989Z,2.80
2018-05-11T18:57:04.066Z,3.03
2018-05-11T18:59:34.043Z,2.90
2018-05-11T19:02:01.510Z,2.90
2018-05-11T19:04:28.970Z,3.03
2018-05-11T19:06:56.478Z,3.00
2018-05-11T19:09:23.951Z,3.53
2018-05-11T19:11:51.438Z,3.20
2018-05-11T19:14:18.899Z,3.33
2018-05-11T19:16:46.388Z,3.23
2018-05-11T19:19:13.846Z,3.30
2018-05-11T19:21:41.334Z,3.53
2018-05-11T19:24:08.814Z,3.47
2018-05-11T19:26:46.240Z,3.40
2018-05-11T19:29:13.726Z,3.60
2018-05-11T19:31:41.215Z,3.57
2018-05-11T19:34:08.690Z,2.90
2018-05-11T19:36:36.198Z,3.30
2018-05-11T19:39:03.664Z,3.60
2018-05-11T19:41:31.152Z,3.40
2018-05-11T19:43:58.613Z,3.40
2018-05-11T19:46:26.100Z,3.30
2018-05-11T19:48:53.561Z,3.73
2018-05-11T19:51:21.043Z,3.73
2018-05-11T19:53:48.510Z,2.97
2018-05-11T19:56:17.547Z,3.90
2018-05-11T19:58:45.184Z,3.23
2018-05-11T20:01:12.791Z,3.50
2018-05-11T20:03:40.498Z,3.40
2018-05-11T20:06:08.071Z,3.50
2018-05-11T20:08:35.648Z,3.17
2018-05-11T20:11:03.238Z,4.30
2018-05-11T20:13:30.730Z,3.30
2018-05-11T20:15:58.263Z,4.00
2018-05-11T20:18:26.006Z,4.10
2018-05-11T20:20:53.525Z,3.80
2018-05-11T20:23:21.031Z,3.90
2018-05-11T20:25:48.635Z,4.30
2018-05-11T20:28:16.154Z,3.67
2018-05-11T20:30:43.813Z,3.70
2018-05-11T20:33:11.460Z,3.70
2018-05-11T20:35:39.719Z,3.77
2018-05-11T20:38:07.242Z,3.73
2018-05-11T20:40:34.742Z,4.00
2018-05-11T20:43:02.281Z,3.83
2018-05-11T20:45:29.790Z,4.10
2018-05-11T20:47:57.289Z,4.00
2018-05-11T20:50:24.781Z,4.37
2018-05-11T20:52:52.302Z,4.03
2018-05-11T20:55:19.835Z,4.17
2018-05-11T20:57:48.128Z,4.20
2018-05-11T21:00:15.546Z,4.57
2018-05-11T21:02:43.392Z,4.40
2018-05-11T21:05:10.886Z,4.63
2018-05-11T21:07:38.433Z,5.20
2018-05-11T21:10:05.977Z,4.83
2018-05-11T21:12:33.587Z,4.93
2018-05-11T21:15:01.098Z,5.20
2018-05-11T21:17:28.625Z,5.23
2018-05-11T21:19:56.133Z,5.57
2018-05-11T21:22:23.955Z,5.60
2018-05-11T21:24:51.464Z,5.90
2018-05-11T21:27:19.133Z,6.40
2018-05-11T21:29:48.515Z,6.53
2018-05-11T21:32:16.006Z,6.60
2018-05-11T21:34:43.734Z,6.53
2018-05-11T21:37:11.235Z,6.73
2018-05-11T21:39:38.721Z,6.60
2018-05-11T21:42:06.243Z,6.67
2018-05-11T21:44:33.732Z,6.57
2018-05-11T21:47:01.207Z,6.47
2018-05-11T21:49:28.689Z,6.67
2018-05-11T21:51:56.201Z,6.67
2018-05-11T21:54:23.741Z,6.73
2018-05-11T21:56:51.298Z,6.40
2018-05-11T21:59:18.807Z,7.30
2018-05-11T22:01:46.340Z,6.37
2018-05-11T22:04:13.874Z,7.13
2018-05-11T22:06:41.411Z,7.13
2018-05-11T22:09:08.918Z,6.83
2018-05-11T22:11:36.480Z,6.63
2018-05-11T22:14:03.986Z,7.37
2018-05-11T22:16:31.550Z,8.17
2018-05-11T22:18:59.074Z,7.83
2018-05-11T22:21:26.622Z,8.73
2018-05-11T22:23:54.142Z,8.60
2018-05-11T22:26:21.649Z,8.17
2018-05-11T22:28:49.160Z,8.83
2018-05-11T22:31:16.686Z,8.70
2018-05-11T22:33:44.194Z,8.30
2018-05-11T22:36:11.699Z,8.07
2018-05-11T22:38:39.251Z,7.53
2018-05-11T22:41:06.767Z,8.13
2018-05-11T22:43:34.323Z,7.83
2018-05-11T22:46:01.847Z,8.20
2018-05-11T22:48:29.403Z,7.93
2018-05-11T22:50:56.937Z,7.67
2018-05-11T22:53:24.478Z,8.40
2018-05-11T22:55:51.975Z,7.93
2018-05-11T22:58:19.546Z,8.30
2018-05-11T23:00:47.052Z,8.87
2018-05-11T23:03:14.578Z,8.37
2018-05-11T23:05:42.092Z,8.47
2018-05-11T23:08:09.595Z,8.50
2018-05-11T23:10:37.113Z,8.60
2018-05-11T23:13:04.597Z,8.63
2018-05-11T23:15:32.113Z,7.77
2018-05-11T23:17:59.613Z,8.37
2018-05-11T23:20:27.154Z,8.23
2018-05-11T23:22:54.646Z,8.37
2018-05-11T23:25:22.197Z,8.83
2018-05-11T23:27:49.779Z,8.40
2018-05-11T23:30:17.248Z,8.50
2018-05-11T23:32:44.795Z,8.77
2018-05-11T23:35:12.422Z,9.00
2018-05-11T23:37:39.926Z,9.30
2018-05-11T23:40:07.418Z,8.33
2018-05-11T23:42:34.914Z,9.70
2018-05-11T23:45:02.450Z,9.47
2018-05-11T23:47:29.993Z,8.63
2018-05-11T23:49:57.494Z,8.87
2018-05-11T23:52:25.014Z,9.23
2018-05-11T23:54:52.504Z,9.40
2018-05-11T23:57:20.025Z,10.17
2018-05-11T23:59:47.592Z,9.10
